Time;durP1;ratioP1;P1;durP2;ratioP2;P2;SDS_P1;SDS_P2;PMS_P1;PMS_P2;Temp;Humidity;BMP_temperature;BMP_pressure;BME280_temperature;BME280_humidity;BME280_pressure;Samples;Min_cycle;Max_cycle;Signal;HPM_P1;HPM_P2
2022/11/13 00:00:56;;;;;;;0.10;0.10;;;;;;;;;;5016598;28;20602;-74
2022/11/13 00:03:43;;;;;;;0.10;0.10;;;;;;;;;;5016030;28;20677;-75
2022/11/13 00:06:28;;;;;;;0.10;0.10;;;;;;;;;;5018031;28;20606;-74
2022/11/13 00:09:15;;;;;;;0.10;0.10;;;;;;;;;;5016363;28;20749;-74
2022/11/13 00:12:01;;;;;;;0.00;0.00;;;;;;;;;;5015573;28;20797;-74
2022/11/13 00:14:47;;;;;;;0.10;0.10;;;;;;;;;;5016305;28;20758;-75
2022/11/13 00:17:35;;;;;;;0.10;0.10;;;;;;;;;;5014709;28;20597;-74
2022/11/13 00:20:21;;;;;;;0.10;0.10;;;;;;;;;;5015481;28;20605;-75
2022/11/13 00:23:07;;;;;;;0.10;0.10;;;;;;;;;;5015585;28;20630;-74
2022/11/13 00:25:54;;;;;;;0.10;0.10;;;;;;;;;;5017803;28;20606;-75
2022/11/13 00:28:40;;;;;;;0.10;0.10;;;;;;;;;;5018875;28;20602;-74
2022/11/13 00:31:28;;;;;;;0.10;0.10;;;;;;;;;;5018940;28;20660;-74
2022/11/13 00:34:16;;;;;;;0.10;0.10;;;;;;;;;;5019896;28;20606;-74
2022/11/13 00:37:02;;;;;;;0.10;0.10;;;;;;;;;;5021007;28;20606;-74
2022/11/13 00:39:49;;;;;;;0.10;0.10;;;;;;;;;;5021527;28;20595;-74
2022/11/13 00:42:35;;;;;;;0.10;0.10;;;;;;;;;;5017229;28;20713;-74
2022/11/13 00:45:22;;;;;;;0.10;0.10;;;;;;;;;;5020498;28;20590;-74
2022/11/13 00:48:08;;;;;;;0.10;0.10;;;;;;;;;;5020561;28;20606;-74
2022/11/13 00:50:57;;;;;;;0.10;0.10;;;;;;;;;;5020138;28;20638;-74
2022/11/13 00:53:44;;;;;;;0.10;0.10;;;;;;;;;;5020977;28;20641;-74
2022/11/13 00:56:30;;;;;;;0.10;0.10;;;;;;;;;;5018610;28;20745;-74
2022/11/13 00:59:17;;;;;;;0.10;0.10;;;;;;;;;;5019832;28;20618;-74
2022/11/13 01:02:03;;;;;;;0.10;0.10;;;;;;;;;;5018672;28;20630;-74
2022/11/13 01:04:49;;;;;;;0.10;0.10;;;;;;;;;;5018410;28;20649;-75
2022/11/13 01:07:37;;;;;;;0.10;0.10;;;;;;;;;;5019022;28;20598;-75
2022/11/13 01:10:25;;;;;;;0.10;0.10;;;;;;;;;;5018173;28;20648;-74
2022/11/13 01:13:11;;;;;;;0.10;0.10;;;;;;;;;;5019111;28;20720;-74
2022/11/13 01:15:57;;;;;;;0.10;0.10;;;;;;;;;;5019506;28;20617;-75
2022/11/13 01:18:44;;;;;;;0.10;0.10;;;;;;;;;;5018013;28;20617;-74
2022/11/13 01:21:30;;;;;;;0.10;0.10;;;;;;;;;;5019272;28;20603;-75
2022/11/13 01:24:18;;;;;;;0.10;0.10;;;;;;;;;;5018016;28;20602;-75
2022/11/13 01:27:06;;;;;;;0.10;0.10;;;;;;;;;;5018768;28;20626;-75
2022/11/13 01:29:52;;;;;;;0.10;0.10;;;;;;;;;;5018539;28;20676;-74
2022/11/13 01:32:38;;;;;;;0.10;0.10;;;;;;;;;;5017355;28;20816;-75
2022/11/13 01:35:24;;;;;;;0.10;0.10;;;;;;;;;;5019278;28;20737;-75
2022/11/13 01:38:10;;;;;;;0.10;0.10;;;;;;;;;;5019014;28;20614;-74
2022/11/13 01:40:58;;;;;;;0.10;0.10;;;;;;;;;;5018301;28;20636;-75
2022/11/13 01:43:44;;;;;;;0.10;0.10;;;;;;;;;;5018839;28;20672;-75
2022/11/13 01:46:32;;;;;;;0.10;0.10;;;;;;;;;;5014829;28;21296;-74
2022/11/13 01:49:24;;;;;;;0.10;0.10;;;;;;;;;;5019463;28;20711;-75
2022/11/13 01:52:13;;;;;;;0.10;0.10;;;;;;;;;;5017395;28;20685;-75
2022/11/13 01:55:01;;;;;;;0.10;0.10;;;;;;;;;;5017254;28;20605;-75
2022/11/13 01:57:49;;;;;;;0.10;0.10;;;;;;;;;;5018253;28;20810;-74
2022/11/13 02:00:35;;;;;;;0.10;0.10;;;;;;;;;;5018409;28;20593;-75
2022/11/13 02:03:22;;;;;;;0.20;0.20;;;;;;;;;;5018549;28;20625;-74
2022/11/13 02:06:08;;;;;;;0.10;0.10;;;;;;;;;;5019055;28;20745;-74
2022/11/13 02:08:54;;;;;;;0.10;0.10;;;;;;;;;;5018031;28;20594;-75
2022/11/13 02:11:41;;;;;;;0.10;0.10;;;;;;;;;;5017064;28;20693;-75
2022/11/13 02:14:30;;;;;;;0.10;0.10;;;;;;;;;;5020240;28;20610;-75
2022/11/13 02:17:17;;;;;;;0.10;0.10;;;;;;;;;;5018041;28;20614;-75
2022/11/13 02:20:05;;;;;;;0.20;0.20;;;;;;;;;;5017355;28;20631;-74
2022/11/13 02:22:53;;;;;;;0.10;0.10;;;;;;;;;;5017540;28;20665;-75
2022/11/13 02:25:42;;;;;;;0.10;0.10;;;;;;;;;;5016655;28;20608;-74
2022/11/13 02:28:29;;;;;;;0.10;0.10;;;;;;;;;;5017414;28;20733;-75
2022/11/13 02:31:15;;;;;;;0.10;0.10;;;;;;;;;;5017374;28;20653;-74
2022/11/13 02:34:02;;;;;;;0.10;0.10;;;;;;;;;;5017317;28;20578;-74
2022/11/13 02:36:49;;;;;;;0.10;0.10;;;;;;;;;;5018488;28;20681;-74
2022/11/13 02:39:35;;;;;;;0.10;0.10;;;;;;;;;;5016095;28;20590;-74
2022/11/13 02:42:23;;;;;;;0.10;0.10;;;;;;;;;;5017036;28;20781;-74
2022/11/13 02:45:10;;;;;;;0.10;0.10;;;;;;;;;;5017751;28;20586;-74
2022/11/13 02:47:56;;;;;;;0.10;0.10;;;;;;;;;;5016542;28;20704;-75
2022/11/13 02:50:42;;;;;;;0.10;0.10;;;;;;;;;;5017219;28;20692;-74
2022/11/13 02:53:29;;;;;;;0.17;0.17;;;;;;;;;;5018487;28;20673;-74
2022/11/13 02:56:15;;;;;;;0.10;0.10;;;;;;;;;;5018937;28;20682;-74
2022/11/13 02:59:02;;;;;;;0.10;0.10;;;;;;;;;;5017697;28;20756;-76
2022/11/13 03:01:49;;;;;;;0.10;0.10;;;;;;;;;;5017510;28;20595;-76
2022/11/13 03:04:35;;;;;;;0.10;0.10;;;;;;;;;;5016340;28;20601;-74
2022/11/13 03:07:22;;;;;;;0.10;0.10;;;;;;;;;;5017785;28;20597;-74
2022/11/13 03:10:09;;;;;;;0.10;0.10;;;;;;;;;;5017034;28;21233;-75
2022/11/13 03:12:56;;;;;;;0.10;0.10;;;;;;;;;;5016382;28;20824;-74
2022/11/13 03:15:43;;;;;;;0.10;0.10;;;;;;;;;;5017757;28;20598;-74
2022/11/13 03:18:30;;;;;;;0.10;0.10;;;;;;;;;;5015837;28;20741;-74
2022/11/13 03:21:17;;;;;;;0.10;0.10;;;;;;;;;;5017452;28;20653;-74
2022/11/13 03:24:03;;;;;;;0.10;0.10;;;;;;;;;;5016418;28;20603;-74
2022/11/13 03:26:49;;;;;;;0.10;0.10;;;;;;;;;;5015311;28;20724;-74
2022/11/13 03:29:35;;;;;;;0.10;0.10;;;;;;;;;;5017424;28;20603;-74
2022/11/13 03:32:23;;;;;;;0.10;0.10;;;;;;;;;;5015796;28;20674;-75
2022/11/13 03:35:09;;;;;;;0.20;0.20;;;;;;;;;;5016382;28;20602;-75
2022/11/13 03:37:55;;;;;;;0.20;0.20;;;;;;;;;;5015448;28;20598;-75
2022/11/13 03:40:42;;;;;;;0.20;0.20;;;;;;;;;;5016784;28;20606;-74
2022/11/13 03:43:28;;;;;;;0.20;0.20;;;;;;;;;;5017899;28;20638;-74
2022/11/13 03:46:15;;;;;;;0.20;0.20;;;;;;;;;;5016402;28;20614;-74
2022/11/13 03:49:02;;;;;;;0.10;0.10;;;;;;;;;;5016344;28;20602;-74
2022/11/13 03:51:48;;;;;;;0.10;0.10;;;;;;;;;;5016132;28;20994;-75
2022/11/13 03:54:35;;;;;;;0.20;0.20;;;;;;;;;;5017358;28;20748;-74
2022/11/13 03:57:21;;;;;;;0.10;0.10;;;;;;;;;;5017553;28;20598;-75
2022/11/13 04:00:08;;;;;;;0.10;0.10;;;;;;;;;;5018187;28;21349;-74
2022/11/13 04:02:55;;;;;;;0.10;0.10;;;;;;;;;;5020676;28;20626;-74
2022/11/13 04:05:42;;;;;;;0.10;0.10;;;;;;;;;;5020135;28;20691;-74
2022/11/13 04:08:29;;;;;;;0.10;0.10;;;;;;;;;;5017732;28;20606;-75
2022/11/13 04:11:15;;;;;;;0.20;0.20;;;;;;;;;;5019640;28;20598;-74
2022/11/13 04:14:01;;;;;;;0.10;0.10;;;;;;;;;;5020736;28;20657;-75
2022/11/13 04:16:48;;;;;;;0.10;0.10;;;;;;;;;;5020876;28;20657;-75
2022/11/13 04:19:34;;;;;;;0.10;0.10;;;;;;;;;;5019872;28;20609;-74
2022/11/13 04:22:22;;;;;;;0.20;0.20;;;;;;;;;;5019568;28;21003;-75
2022/11/13 04:25:09;;;;;;;0.20;0.20;;;;;;;;;;5019684;28;21095;-74
2022/11/13 04:27:55;;;;;;;0.30;0.30;;;;;;;;;;5019315;28;21205;-74
2022/11/13 04:30:41;;;;;;;0.30;0.30;;;;;;;;;;5020105;28;20751;-74
2022/11/13 04:33:27;;;;;;;0.30;0.30;;;;;;;;;;5021932;28;20673;-74
2022/11/13 04:36:14;;;;;;;0.20;0.20;;;;;;;;;;5019928;28;20597;-74
2022/11/13 04:39:02;;;;;;;0.20;0.20;;;;;;;;;;5019375;28;20660;-74
2022/11/13 04:44:52;;;;;;;0.20;0.20;;;;;;;;;;5020265;28;20617;-74
2022/11/13 04:47:38;;;;;;;0.20;0.20;;;;;;;;;;5018258;28;20593;-75
2022/11/13 04:50:25;;;;;;;0.43;0.43;;;;;;;;;;5020787;28;20621;-74
2022/11/13 04:53:11;;;;;;;0.13;0.13;;;;;;;;;;5021186;28;20669;-75
2022/11/13 04:56:00;;;;;;;0.20;0.20;;;;;;;;;;5020542;28;20609;-75
2022/11/13 04:58:46;;;;;;;0.20;0.20;;;;;;;;;;5018843;28;20599;-75
2022/11/13 05:01:33;;;;;;;0.20;0.20;;;;;;;;;;5020671;28;20597;-75
2022/11/13 05:04:21;;;;;;;0.10;0.10;;;;;;;;;;5021611;28;20630;-74
2022/11/13 05:07:07;;;;;;;0.20;0.20;;;;;;;;;;5019186;28;20597;-75
2022/11/13 05:09:54;;;;;;;0.20;0.20;;;;;;;;;;5019980;28;20707;-74
2022/11/13 05:12:41;;;;;;;0.30;0.30;;;;;;;;;;5018286;28;20690;-74
2022/11/13 05:15:28;;;;;;;0.13;0.13;;;;;;;;;;5020163;28;20743;-75
2022/11/13 05:18:14;;;;;;;0.20;0.20;;;;;;;;;;5019100;28;20652;-74
2022/11/13 05:21:01;;;;;;;0.20;0.20;;;;;;;;;;5018441;28;20620;-74
2022/11/13 05:23:47;;;;;;;0.10;0.10;;;;;;;;;;5016425;28;20634;-75
2022/11/13 05:26:34;;;;;;;0.20;0.20;;;;;;;;;;5018398;28;20641;-74
2022/11/13 05:29:22;;;;;;;0.10;0.10;;;;;;;;;;5019513;28;20648;-75
2022/11/13 05:32:08;;;;;;;0.30;0.30;;;;;;;;;;5018342;28;20652;-75
2022/11/13 05:34:54;;;;;;;0.20;0.20;;;;;;;;;;5018509;28;20632;-75
2022/11/13 05:37:41;;;;;;;0.30;0.30;;;;;;;;;;5017233;28;20617;-75
2022/11/13 05:40:27;;;;;;;0.20;0.20;;;;;;;;;;5020227;28;20700;-75
2022/11/13 05:43:14;;;;;;;0.20;0.20;;;;;;;;;;5020058;28;20691;-75
2022/11/13 05:46:02;;;;;;;0.13;0.13;;;;;;;;;;5017766;28;20602;-75
2022/11/13 05:48:53;;;;;;;0.37;0.37;;;;;;;;;;5019028;28;20690;-75
2022/11/13 05:51:39;;;;;;;0.20;0.20;;;;;;;;;;5018851;28;20606;-75
2022/11/13 05:54:25;;;;;;;0.27;0.27;;;;;;;;;;5020146;28;20687;-74
2022/11/13 05:57:11;;;;;;;0.47;0.40;;;;;;;;;;5018445;28;21318;-74
2022/11/13 05:59:58;;;;;;;0.37;0.30;;;;;;;;;;5018987;28;20594;-75
2022/11/13 06:02:46;;;;;;;0.30;0.30;;;;;;;;;;5020432;28;20634;-75
2022/11/13 06:05:35;;;;;;;0.50;0.40;;;;;;;;;;5018398;28;20613;-75
2022/11/13 06:08:24;;;;;;;0.30;0.30;;;;;;;;;;5017070;28;21257;-75
2022/11/13 06:11:11;;;;;;;0.40;0.40;;;;;;;;;;5019634;28;20625;-75
2022/11/13 06:13:58;;;;;;;0.30;0.30;;;;;;;;;;5019750;28;20642;-74
2022/11/13 06:16:45;;;;;;;0.40;0.40;;;;;;;;;;5017099;28;20668;-75
2022/11/13 06:19:33;;;;;;;0.30;0.30;;;;;;;;;;5017245;28;20594;-75
2022/11/13 06:22:19;;;;;;;0.20;0.20;;;;;;;;;;5017521;28;21258;-75
2022/11/13 06:25:06;;;;;;;0.30;0.30;;;;;;;;;;5017872;28;20607;-75
2022/11/13 06:27:53;;;;;;;0.30;0.30;;;;;;;;;;5016858;28;21216;-75
2022/11/13 06:30:40;;;;;;;0.30;0.30;;;;;;;;;;5019234;28;20617;-75
2022/11/13 06:33:26;;;;;;;0.30;0.30;;;;;;;;;;5019753;28;20696;-75
2022/11/13 06:36:14;;;;;;;0.30;0.30;;;;;;;;;;5017359;28;20598;-75
2022/11/13 06:39:00;;;;;;;0.10;0.10;;;;;;;;;;5018418;28;20823;-76
2022/11/13 06:41:46;;;;;;;0.40;0.40;;;;;;;;;;5019019;28;20632;-75
2022/11/13 06:44:32;;;;;;;0.20;0.20;;;;;;;;;;5016564;28;20597;-76
2022/11/13 06:47:19;;;;;;;0.20;0.20;;;;;;;;;;5017732;28;20605;-75
2022/11/13 06:50:06;;;;;;;0.30;0.30;;;;;;;;;;5017477;28;20593;-75
2022/11/13 06:52:54;;;;;;;0.30;0.30;;;;;;;;;;5018095;28;20633;-75
2022/11/13 06:55:43;;;;;;;0.33;0.33;;;;;;;;;;5018125;28;21023;-74
2022/11/13 06:58:29;;;;;;;0.40;0.40;;;;;;;;;;5018138;28;20594;-74
2022/11/13 07:01:17;;;;;;;0.37;0.37;;;;;;;;;;5019433;28;20773;-75
2022/11/13 07:04:04;;;;;;;0.30;0.30;;;;;;;;;;5017722;28;20629;-75
2022/11/13 07:06:51;;;;;;;0.30;0.30;;;;;;;;;;5017102;28;20606;-74
2022/11/13 07:09:39;;;;;;;0.40;0.40;;;;;;;;;;5017049;28;20622;-74
2022/11/13 07:12:25;;;;;;;0.40;0.40;;;;;;;;;;5017316;28;20683;-75
2022/11/13 07:15:11;;;;;;;0.23;0.23;;;;;;;;;;5017720;28;20590;-74
2022/11/13 07:18:00;;;;;;;0.20;0.20;;;;;;;;;;5016645;28;20653;-75
2022/11/13 07:20:47;;;;;;;0.20;0.20;;;;;;;;;;5016221;28;20594;-74
2022/11/13 07:23:35;;;;;;;0.30;0.30;;;;;;;;;;5017298;28;20629;-74
2022/11/13 07:26:23;;;;;;;0.30;0.30;;;;;;;;;;5017363;28;20633;-73
2022/11/13 07:29:10;;;;;;;0.30;0.30;;;;;;;;;;5016033;28;20611;-74
2022/11/13 07:31:56;;;;;;;0.37;0.37;;;;;;;;;;5018157;28;20699;-76
2022/11/13 07:34:43;;;;;;;0.20;0.20;;;;;;;;;;5014519;28;21055;-76
2022/11/13 07:37:28;;;;;;;0.20;0.20;;;;;;;;;;5014322;28;20587;-75
2022/11/13 07:40:16;;;;;;;0.20;0.20;;;;;;;;;;5015935;28;20613;-75
2022/11/13 07:43:03;;;;;;;0.20;0.20;;;;;;;;;;5018164;28;20649;-75
2022/11/13 07:45:53;;;;;;;0.10;0.10;;;;;;;;;;5015746;28;20653;-75
2022/11/13 07:48:39;;;;;;;0.20;0.20;;;;;;;;;;5017523;28;21028;-75
2022/11/13 07:51:25;;;;;;;0.13;0.13;;;;;;;;;;5015664;28;20610;-74
2022/11/13 07:54:11;;;;;;;0.10;0.10;;;;;;;;;;5015668;28;20741;-75
2022/11/13 07:56:58;;;;;;;0.20;0.20;;;;;;;;;;5015899;28;20611;-76
2022/11/13 07:59:46;;;;;;;0.20;0.20;;;;;;;;;;5016781;28;20591;-75
2022/11/13 08:02:32;;;;;;;0.37;0.37;;;;;;;;;;5016542;28;20740;-75
2022/11/13 08:05:20;;;;;;;0.20;0.20;;;;;;;;;;5016490;28;20598;-74
2022/11/13 08:08:06;;;;;;;0.20;0.20;;;;;;;;;;5018814;28;20673;-74
2022/11/13 08:10:52;;;;;;;0.20;0.20;;;;;;;;;;5016155;28;20585;-74
2022/11/13 08:13:39;;;;;;;0.30;0.30;;;;;;;;;;5015885;28;20649;-74
2022/11/13 08:16:26;;;;;;;0.37;0.37;;;;;;;;;;5015743;28;20594;-74
2022/11/13 08:19:13;;;;;;;0.30;0.30;;;;;;;;;;5016725;28;20606;-73
2022/11/13 08:21:59;;;;;;;0.20;0.20;;;;;;;;;;5016341;28;20680;-72
2022/11/13 08:24:45;;;;;;;0.20;0.20;;;;;;;;;;5015385;28;20610;-73
2022/11/13 08:27:32;;;;;;;0.20;0.20;;;;;;;;;;5016014;28;20690;-74
2022/11/13 08:30:18;;;;;;;0.43;0.43;;;;;;;;;;5017302;28;20621;-74
2022/11/13 08:33:06;;;;;;;0.30;0.30;;;;;;;;;;5016460;28;20705;-73
2022/11/13 08:35:53;;;;;;;0.30;0.30;;;;;;;;;;5015522;28;20692;-73
2022/11/13 08:38:40;;;;;;;0.40;0.40;;;;;;;;;;5018172;28;20692;-73
2022/11/13 08:41:26;;;;;;;0.43;0.43;;;;;;;;;;5017087;28;20601;-74
2022/11/13 08:44:13;;;;;;;0.30;0.30;;;;;;;;;;5014149;28;20618;-73
2022/11/13 08:46:59;;;;;;;0.37;0.37;;;;;;;;;;5018227;28;20606;-73
2022/11/13 08:49:47;;;;;;;0.30;0.30;;;;;;;;;;5018746;28;20638;-74
2022/11/13 08:52:33;;;;;;;0.17;0.17;;;;;;;;;;5021332;28;20621;-73
2022/11/13 08:55:20;;;;;;;0.23;0.23;;;;;;;;;;5019758;28;21233;-75
2022/11/13 08:58:06;;;;;;;0.30;0.30;;;;;;;;;;5019871;28;20599;-74
2022/11/13 09:00:53;;;;;;;0.20;0.20;;;;;;;;;;5020648;28;20594;-75
2022/11/13 09:03:39;;;;;;;0.30;0.30;;;;;;;;;;5021301;28;20634;-74
2022/11/13 09:06:26;;;;;;;0.30;0.30;;;;;;;;;;5019600;28;20640;-74
2022/11/13 09:09:13;;;;;;;0.30;0.30;;;;;;;;;;5020765;28;20597;-73
2022/11/13 09:11:59;;;;;;;0.30;0.30;;;;;;;;;;5018017;28;20648;-74
2022/11/13 09:14:46;;;;;;;0.20;0.20;;;;;;;;;;5019061;28;20750;-74
2022/11/13 09:17:33;;;;;;;0.20;0.20;;;;;;;;;;5016840;28;20602;-74
2022/11/13 09:20:19;;;;;;;0.10;0.10;;;;;;;;;;5019804;28;20602;-73
2022/11/13 09:23:08;;;;;;;0.10;0.10;;;;;;;;;;5019676;28;20645;-74
2022/11/13 09:25:54;;;;;;;0.10;0.10;;;;;;;;;;5015792;28;20594;-74
2022/11/13 09:28:40;;;;;;;0.10;0.10;;;;;;;;;;5017841;28;20613;-74
2022/11/13 09:31:26;;;;;;;0.10;0.10;;;;;;;;;;5019976;28;21309;-74
2022/11/13 09:34:12;;;;;;;0.10;0.10;;;;;;;;;;5019333;28;20646;-73
2022/11/13 09:36:59;;;;;;;0.10;0.10;;;;;;;;;;5017765;28;20597;-74
2022/11/13 09:39:46;;;;;;;0.10;0.10;;;;;;;;;;5019333;28;20597;-74
2022/11/13 09:42:34;;;;;;;0.10;0.10;;;;;;;;;;5017549;28;20701;-74
2022/11/13 09:45:20;;;;;;;0.10;0.10;;;;;;;;;;5019273;28;20740;-74
2022/11/13 09:48:12;;;;;;;0.10;0.10;;;;;;;;;;5017078;28;20648;-74
2022/11/13 09:51:01;;;;;;;0.00;0.00;;;;;;;;;;5018668;28;20648;-75
2022/11/13 09:53:50;;;;;;;0.10;0.10;;;;;;;;;;5018458;28;20622;-75
2022/11/13 09:56:41;;;;;;;0.10;0.10;;;;;;;;;;5016799;28;20601;-75
2022/11/13 09:59:29;;;;;;;0.10;0.10;;;;;;;;;;5018644;28;20749;-74
2022/11/13 10:02:18;;;;;;;0.10;0.10;;;;;;;;;;5019054;28;20711;-75
2022/11/13 10:05:06;;;;;;;0.10;0.10;;;;;;;;;;5018333;28;20680;-74
2022/11/13 10:07:56;;;;;;;0.10;0.10;;;;;;;;;;5017813;28;20693;-75
2022/11/13 10:10:47;;;;;;;0.10;0.10;;;;;;;;;;5017727;28;20598;-75
2022/11/13 10:13:39;;;;;;;0.00;0.00;;;;;;;;;;5016755;28;20635;-75
2022/11/13 10:16:30;;;;;;;0.00;0.00;;;;;;;;;;5017510;28;20610;-76
2022/11/13 10:19:20;;;;;;;0.10;0.10;;;;;;;;;;5016958;28;20644;-76
2022/11/13 10:22:13;;;;;;;0.10;0.10;;;;;;;;;;5015407;28;20653;-77
2022/11/13 10:25:03;;;;;;;0.10;0.10;;;;;;;;;;5018639;28;20622;-76
2022/11/13 10:27:51;;;;;;;0.10;0.10;;;;;;;;;;5016298;28;20623;-76
2022/11/13 10:30:40;;;;;;;0.00;0.00;;;;;;;;;;5017824;28;21217;-75
2022/11/13 10:33:26;;;;;;;0.00;0.00;;;;;;;;;;5018588;28;20654;-75
2022/11/13 10:36:17;;;;;;;0.10;0.10;;;;;;;;;;5018749;28;20667;-76
2022/11/13 10:39:06;;;;;;;0.10;0.10;;;;;;;;;;5017382;28;20618;-77
2022/11/13 10:41:53;;;;;;;0.10;0.10;;;;;;;;;;5018116;28;20627;-76
2022/11/13 10:44:40;;;;;;;0.10;0.10;;;;;;;;;;5014118;28;20590;-76
2022/11/13 10:47:28;;;;;;;0.10;0.10;;;;;;;;;;5016592;28;20755;-76
2022/11/13 10:50:21;;;;;;;0.10;0.10;;;;;;;;;;5016863;28;20749;-75
2022/11/13 10:53:15;;;;;;;0.10;0.10;;;;;;;;;;5018658;28;20625;-75
2022/11/13 10:56:01;;;;;;;0.10;0.10;;;;;;;;;;5018096;28;20649;-73
2022/11/13 10:59:00;;;;;;;0.10;0.10;;;;;;;;;;5015176;28;20594;-74
2022/11/13 11:01:48;;;;;;;0.10;0.10;;;;;;;;;;5017461;28;20621;-74
2022/11/13 11:04:36;;;;;;;0.10;0.10;;;;;;;;;;5017368;28;20594;-74
2022/11/13 11:07:23;;;;;;;0.10;0.10;;;;;;;;;;5018511;28;20672;-74
2022/11/13 11:10:20;;;;;;;0.10;0.10;;;;;;;;;;5016748;28;20676;-74
2022/11/13 11:13:10;;;;;;;0.00;0.00;;;;;;;;;;5018136;28;20643;-76
2022/11/13 11:15:58;;;;;;;0.10;0.10;;;;;;;;;;5017320;28;20666;-75
2022/11/13 11:18:48;;;;;;;0.10;0.10;;;;;;;;;;5016943;28;20610;-75
2022/11/13 11:21:36;;;;;;;0.00;0.00;;;;;;;;;;5017201;28;20602;-75
2022/11/13 11:24:23;;;;;;;0.10;0.10;;;;;;;;;;5017921;28;20629;-75
2022/11/13 11:27:14;;;;;;;0.10;0.10;;;;;;;;;;5016285;28;20676;-75
2022/11/13 11:30:03;;;;;;;0.10;0.10;;;;;;;;;;5016868;28;20696;-75
2022/11/13 11:32:53;;;;;;;0.10;0.10;;;;;;;;;;5016184;28;20681;-75
2022/11/13 11:35:42;;;;;;;0.10;0.10;;;;;;;;;;5017083;28;20729;-75
2022/11/13 11:38:32;;;;;;;0.10;0.10;;;;;;;;;;5018120;28;20637;-74
2022/11/13 11:41:20;;;;;;;0.00;0.00;;;;;;;;;;5015971;28;20601;-74
2022/11/13 11:44:12;;;;;;;0.10;0.10;;;;;;;;;;5016035;28;20607;-75
2022/11/13 11:46:59;;;;;;;0.10;0.10;;;;;;;;;;5015769;28;20609;-75
2022/11/13 11:49:45;;;;;;;0.10;0.10;;;;;;;;;;5016419;28;20649;-75
2022/11/13 11:52:37;;;;;;;0.10;0.10;;;;;;;;;;5016161;28;20625;-75
2022/11/13 11:55:40;;;;;;;0.10;0.10;;;;;;;;;;5015611;28;20658;-75
2022/11/13 11:58:35;;;;;;;0.10;0.10;;;;;;;;;;5017204;28;20621;-75
2022/11/13 12:01:32;;;;;;;0.00;0.00;;;;;;;;;;5018308;28;20631;-75
2022/11/13 12:04:24;;;;;;;0.10;0.10;;;;;;;;;;5017928;28;20625;-76
2022/11/13 12:07:27;;;;;;;0.10;0.10;;;;;;;;;;5013686;28;20615;-75
2022/11/13 12:10:22;;;;;;;0.10;0.10;;;;;;;;;;5014682;28;20989;-75
2022/11/13 12:13:21;;;;;;;0.10;0.10;;;;;;;;;;5017100;28;20669;-75
2022/11/13 12:16:13;;;;;;;0.10;0.10;;;;;;;;;;5017313;28;20649;-75
2022/11/13 12:19:02;;;;;;;0.10;0.10;;;;;;;;;;5015355;28;20656;-75
2022/11/13 12:21:56;;;;;;;0.10;0.10;;;;;;;;;;5018838;28;20654;-75
2022/11/13 12:24:50;;;;;;;0.00;0.00;;;;;;;;;;5018949;28;20618;-75
2022/11/13 12:27:39;;;;;;;0.10;0.10;;;;;;;;;;5019205;28;20605;-75
2022/11/13 12:30:32;;;;;;;0.10;0.10;;;;;;;;;;5021450;28;20672;-76
2022/11/13 12:33:23;;;;;;;0.00;0.00;;;;;;;;;;5021574;28;20704;-75
2022/11/13 12:36:10;;;;;;;0.10;0.10;;;;;;;;;;5019304;28;20657;-75
2022/11/13 12:39:01;;;;;;;0.00;0.00;;;;;;;;;;5019518;28;20757;-75
2022/11/13 12:41:50;;;;;;;0.10;0.10;;;;;;;;;;5019434;28;20606;-75
2022/11/13 12:44:40;;;;;;;0.10;0.10;;;;;;;;;;5019896;28;20601;-75
2022/11/13 12:47:28;;;;;;;0.10;0.10;;;;;;;;;;5019006;28;20633;-75
2022/11/13 12:50:23;;;;;;;0.00;0.00;;;;;;;;;;5019340;28;20605;-74
2022/11/13 12:53:10;;;;;;;0.00;0.00;;;;;;;;;;5019570;28;20638;-74
2022/11/13 12:55:58;;;;;;;0.10;0.10;;;;;;;;;;5018661;28;20649;-74
2022/11/13 12:58:55;;;;;;;0.00;0.00;;;;;;;;;;5019643;28;20618;-74
2022/11/13 13:01:44;;;;;;;0.10;0.10;;;;;;;;;;5018382;28;20606;-75
2022/11/13 13:04:43;;;;;;;0.10;0.10;;;;;;;;;;5019562;28;20633;-75
2022/11/13 13:07:40;;;;;;;0.10;0.10;;;;;;;;;;5018111;28;20594;-74
2022/11/13 13:10:30;;;;;;;0.10;0.10;;;;;;;;;;5019020;28;20676;-74
2022/11/13 13:13:19;;;;;;;0.00;0.00;;;;;;;;;;5018877;28;20773;-76
2022/11/13 13:16:07;;;;;;;0.00;0.00;;;;;;;;;;5015002;28;20685;-76
2022/11/13 13:18:54;;;;;;;0.10;0.10;;;;;;;;;;5016446;28;20645;-76
2022/11/13 13:21:42;;;;;;;0.10;0.10;;;;;;;;;;5016416;28;20597;-75
2022/11/13 13:24:32;;;;;;;0.10;0.10;;;;;;;;;;5017190;28;20613;-75
2022/11/13 13:27:23;;;;;;;0.10;0.10;;;;;;;;;;5019133;28;20652;-75
2022/11/13 13:30:16;;;;;;;0.10;0.10;;;;;;;;;;5019339;28;20642;-75
2022/11/13 13:33:06;;;;;;;0.10;0.10;;;;;;;;;;5017189;28;20685;-74
2022/11/13 13:35:58;;;;;;;0.10;0.10;;;;;;;;;;5020423;28;20645;-75
2022/11/13 13:38:50;;;;;;;0.00;0.00;;;;;;;;;;5016078;28;20740;-76
2022/11/13 13:41:43;;;;;;;0.00;0.00;;;;;;;;;;5016866;28;20598;-76
2022/11/13 13:44:36;;;;;;;0.10;0.10;;;;;;;;;;5015340;28;20670;-76
2022/11/13 13:47:25;;;;;;;0.07;0.07;;;;;;;;;;5016926;28;20606;-75
2022/11/13 13:50:15;;;;;;;0.00;0.00;;;;;;;;;;5018871;28;20598;-75
2022/11/13 13:53:03;;;;;;;0.10;0.10;;;;;;;;;;5019696;28;20687;-75
2022/11/13 13:55:52;;;;;;;0.10;0.10;;;;;;;;;;5018142;28;20799;-76
2022/11/13 13:58:39;;;;;;;0.10;0.10;;;;;;;;;;5015108;28;20611;-76
2022/11/13 14:01:27;;;;;;;0.10;0.10;;;;;;;;;;5019219;28;20749;-75
2022/11/13 14:04:15;;;;;;;0.10;0.10;;;;;;;;;;5019142;28;20680;-76
2022/11/13 14:07:02;;;;;;;0.00;0.00;;;;;;;;;;5016861;28;20758;-75
2022/11/13 14:09:48;;;;;;;0.10;0.10;;;;;;;;;;5016465;28;20594;-76
2022/11/13 14:12:41;;;;;;;0.10;0.10;;;;;;;;;;5017539;28;20714;-76
2022/11/13 14:15:28;;;;;;;0.00;0.00;;;;;;;;;;5017718;28;20664;-77
2022/11/13 14:18:17;;;;;;;0.00;0.00;;;;;;;;;;5017382;28;20685;-78
2022/11/13 14:21:05;;;;;;;0.10;0.10;;;;;;;;;;5019633;28;20602;-77
2022/11/13 14:23:54;;;;;;;0.00;0.00;;;;;;;;;;5018067;28;20673;-77
2022/11/13 14:26:41;;;;;;;0.10;0.10;;;;;;;;;;5017189;28;20614;-76
2022/11/13 14:29:33;;;;;;;0.10;0.10;;;;;;;;;;5018070;28;20609;-77
2022/11/13 14:32:21;;;;;;;0.10;0.10;;;;;;;;;;5018081;28;20637;-77
2022/11/13 14:35:08;;;;;;;0.00;0.00;;;;;;;;;;5016749;28;20614;-77
2022/11/13 14:37:55;;;;;;;0.10;0.10;;;;;;;;;;5015218;28;20605;-78
2022/11/13 14:40:46;;;;;;;0.10;0.10;;;;;;;;;;5014739;28;20605;-77
2022/11/13 14:43:33;;;;;;;0.10;0.10;;;;;;;;;;5017959;28;20721;-76
2022/11/13 14:46:37;;;;;;;0.00;0.00;;;;;;;;;;5016742;28;21253;-75
2022/11/13 14:49:29;;;;;;;0.10;0.10;;;;;;;;;;5017424;28;20609;-75
2022/11/13 14:52:21;;;;;;;0.00;0.00;;;;;;;;;;5018944;28;20637;-76
2022/11/13 14:55:08;;;;;;;0.10;0.10;;;;;;;;;;5016142;28;20607;-76
2022/11/13 14:57:54;;;;;;;0.10;0.10;;;;;;;;;;5019323;28;20639;-76
2022/11/13 15:00:39;;;;;;;0.10;0.10;;;;;;;;;;5017944;28;20601;-76
2022/11/13 15:03:26;;;;;;;0.10;0.10;;;;;;;;;;5016700;28;20642;-76
2022/11/13 15:06:15;;;;;;;0.10;0.10;;;;;;;;;;5018784;28;20609;-76
2022/11/13 15:09:01;;;;;;;0.10;0.10;;;;;;;;;;5016831;28;20601;-76
2022/11/13 15:11:48;;;;;;;0.10;0.10;;;;;;;;;;5017914;28;20603;-76
2022/11/13 15:14:34;;;;;;;0.10;0.10;;;;;;;;;;5017308;28;20590;-77
2022/11/13 15:17:21;;;;;;;0.10;0.10;;;;;;;;;;5018107;28;20672;-77
2022/11/13 15:20:13;;;;;;;0.10;0.10;;;;;;;;;;5016619;28;20606;-77
2022/11/13 15:23:00;;;;;;;0.10;0.10;;;;;;;;;;5016754;28;20637;-76
2022/11/13 15:25:47;;;;;;;0.00;0.00;;;;;;;;;;5016021;28;20617;-76
2022/11/13 15:28:33;;;;;;;0.10;0.10;;;;;;;;;;5013159;28;20686;-76
2022/11/13 15:31:20;;;;;;;0.00;0.00;;;;;;;;;;5014554;28;20618;-75
2022/11/13 15:34:06;;;;;;;0.10;0.10;;;;;;;;;;5012840;28;20626;-76
2022/11/13 15:36:52;;;;;;;0.10;0.10;;;;;;;;;;5011262;28;20640;-77
2022/11/13 15:39:40;;;;;;;0.00;0.00;;;;;;;;;;5016232;28;20594;-77
2022/11/13 15:42:29;;;;;;;0.10;0.10;;;;;;;;;;5016374;28;20796;-76
2022/11/13 15:45:16;;;;;;;0.10;0.10;;;;;;;;;;5016087;28;20652;-76
2022/11/13 15:48:03;;;;;;;0.10;0.10;;;;;;;;;;5017835;28;20745;-77
2022/11/13 15:50:49;;;;;;;0.10;0.10;;;;;;;;;;5017034;28;20606;-76
2022/11/13 15:53:35;;;;;;;0.10;0.10;;;;;;;;;;5015554;28;20623;-77
2022/11/13 15:56:22;;;;;;;0.00;0.00;;;;;;;;;;5016207;28;20641;-76
2022/11/13 15:59:10;;;;;;;0.10;0.10;;;;;;;;;;5019310;28;20650;-77
2022/11/13 16:01:56;;;;;;;0.00;0.00;;;;;;;;;;5021562;28;20721;-77
2022/11/13 16:04:43;;;;;;;0.00;0.00;;;;;;;;;;5023116;28;20629;-77
2022/11/13 16:07:30;;;;;;;0.00;0.00;;;;;;;;;;5020792;28;20602;-77
2022/11/13 16:10:17;;;;;;;0.00;0.00;;;;;;;;;;5020087;28;20594;-77
2022/11/13 16:13:05;;;;;;;0.10;0.10;;;;;;;;;;5019585;28;20644;-77
2022/11/13 16:15:51;;;;;;;0.00;0.00;;;;;;;;;;5017619;28;20643;-77
2022/11/13 16:18:37;;;;;;;0.10;0.10;;;;;;;;;;5018349;28;20594;-77
2022/11/13 16:21:24;;;;;;;0.00;0.00;;;;;;;;;;5018544;28;20602;-77
2022/11/13 16:24:11;;;;;;;0.10;0.10;;;;;;;;;;5018007;28;20752;-77
2022/11/13 16:26:59;;;;;;;0.00;0.00;;;;;;;;;;5021689;28;20589;-78
2022/11/13 16:29:47;;;;;;;0.00;0.00;;;;;;;;;;5017569;28;20591;-78
2022/11/13 16:32:33;;;;;;;0.00;0.00;;;;;;;;;;5020558;28;20622;-78
2022/11/13 16:35:20;;;;;;;0.10;0.10;;;;;;;;;;5022621;28;20629;-77
2022/11/13 16:38:11;;;;;;;0.10;0.10;;;;;;;;;;5018892;28;20602;-77
2022/11/13 16:40:57;;;;;;;0.10;0.10;;;;;;;;;;5017577;28;20773;-77
2022/11/13 16:43:43;;;;;;;0.00;0.00;;;;;;;;;;5017357;28;20629;-77
2022/11/13 16:46:32;;;;;;;0.10;0.10;;;;;;;;;;5018880;28;20610;-77
2022/11/13 16:49:19;;;;;;;0.10;0.10;;;;;;;;;;5017216;28;20607;-77